Terminal Aerodrome Forecast
Issued by NWS

Home | Current Version | Previous Version | Text Only | Print | Product List | Glossary On
Versions: 1 2 3 4 5 6 7 8 9 10 11 12
000
FTUS44 KEPZ 221700
TAFLRU
TAF
KLRU 221723Z 2218/2318 26015KT P6SM BKN250
     FM222300 28015G25KT P6SM BKN250
     FM230600 32010G20KT P6SM SCT250=

USA.gov is the U.S. government's official web portal to all federal, state and local government web resources and services.